Time;durP1;ratioP1;P1;durP2;ratioP2;P2;SDS_P1;SDS_P2;PMS_P1;PMS_P2;Temp;Humidity;BMP_temperature;BMP_pressure;BME280_temperature;BME280_humidity;BME280_pressure;Samples;Min_cycle;Max_cycle;Signal;HPM_P1;HPM_P2
2022/01/27 00:02:53;;;;;;;;;;;23.00;29.50;;;;;;465724;255;2294;-40
2022/01/27 00:05:01;;;;;;;;;;;23.00;29.50;;;;;;466529;255;1493;-40
2022/01/27 00:06:50;;;;;;;;;;;23.00;29.50;;;;;;465667;255;2156;-40
2022/01/27 00:08:55;;;;;;;;;;;23.00;29.50;;;;;;466743;254;1330;-40
2022/01/27 00:10:56;;;;;;;;;;;23.00;29.50;;;;;;466255;255;2458;-40
2022/01/27 00:12:55;;;;;;;;;;;23.00;29.50;;;;;;466421;255;2190;-40
2022/01/27 00:15:08;;;;;;;;;;;23.00;29.50;;;;;;466710;254;2453;-40
2022/01/27 00:17:02;;;;;;;;;;;23.00;29.50;;;;;;465811;255;2298;-40
2022/01/27 00:18:59;;;;;;;;;;;23.00;29.50;;;;;;466414;255;2470;-40
2022/01/27 00:21:01;;;;;;;;;;;23.00;29.50;;;;;;466733;254;1248;-40
2022/01/27 00:23:02;;;;;;;;;;;23.00;29.50;;;;;;466766;254;1187;-40
2022/01/27 00:25:05;;;;;;;;;;;23.00;29.50;;;;;;466686;254;1131;-40
2022/01/27 00:27:05;;;;;;;;;;;23.00;29.50;;;;;;466764;255;2325;-40
2022/01/27 00:29:06;;;;;;;;;;;23.00;29.50;;;;;;466626;254;1033;-40
2022/01/27 00:31:07;;;;;;;;;;;23.00;29.50;;;;;;466597;254;1146;-40
2022/01/27 00:33:09;;;;;;;;;;;23.00;29.50;;;;;;466614;254;2196;-40
2022/01/27 00:35:10;;;;;;;;;;;23.00;29.50;;;;;;466711;254;1119;-40
2022/01/27 00:37:11;;;;;;;;;;;23.00;29.50;;;;;;467035;254;1148;-40
2022/01/27 00:39:13;;;;;;;;;;;23.00;29.50;;;;;;466847;254;1282;-40
2022/01/27 00:41:14;;;;;;;;;;;23.00;29.50;;;;;;466711;254;1074;-40
2022/01/27 00:43:15;;;;;;;;;;;23.00;29.50;;;;;;466898;254;1271;-40
2022/01/27 00:45:17;;;;;;;;;;;23.00;29.50;;;;;;466703;254;1034;-40
2022/01/27 00:47:18;;;;;;;;;;;23.00;29.50;;;;;;466660;254;1101;-40
2022/01/27 00:49:20;;;;;;;;;;;23.00;29.50;;;;;;466603;254;1673;-40
2022/01/27 00:51:23;;;;;;;;;;;23.00;29.50;;;;;;466976;254;1377;-40
2022/01/27 00:53:31;;;;;;;;;;;23.10;29.50;;;;;;466521;255;2126;-40
2022/01/27 00:55:32;;;;;;;;;;;23.10;29.50;;;;;;466422;255;2163;-40
2022/01/27 00:57:39;;;;;;;;;;;23.10;29.50;;;;;;466346;255;2150;-40
2022/01/27 00:59:39;;;;;;;;;;;23.10;29.50;;;;;;466560;255;1565;-40
2022/01/27 01:01:39;;;;;;;;;;;23.10;29.50;;;;;;466263;255;2351;-40
2022/01/27 01:03:40;;;;;;;;;;;23.10;29.50;;;;;;466341;255;2082;-40
2022/01/27 01:05:58;;;;;;;;;;;23.00;29.50;;;;;;466270;255;2281;-40
2022/01/27 01:07:51;;;;;;;;;;;23.00;29.50;;;;;;465709;255;2368;-40
2022/01/27 01:10:39;;;;;;;;;;;23.10;29.50;;;;;;466711;255;2215;-40
2022/01/27 01:13:12;;;;;;;;;;;23.00;29.50;;;;;;465350;255;2162;-40
2022/01/27 01:14:48;;;;;;;;;;;23.10;29.50;;;;;;465325;255;1975;-40
2022/01/27 01:16:57;;;;;;;;;;;23.10;29.50;;;;;;466404;255;1504;-40
2022/01/27 01:18:58;;;;;;;;;;;23.10;29.50;;;;;;466263;255;2163;-40
2022/01/27 01:21:13;;;;;;;;;;;23.10;29.50;;;;;;466338;255;2412;-40
2022/01/27 01:30:32;;;;;;;;;;;23.10;29.50;;;;;;442616;268;1138;-40
2022/01/27 01:32:37;;;;;;;;;;;23.10;29.60;;;;;;444210;260;2291;-40
2022/01/27 01:34:28;;;;;;;;;;;23.10;29.60;;;;;;466108;255;1682;-40
2022/01/27 01:36:36;;;;;;;;;;;23.10;29.50;;;;;;466435;254;1840;-40
2022/01/27 01:38:36;;;;;;;;;;;23.10;29.50;;;;;;466577;255;2072;-40
2022/01/27 01:40:37;;;;;;;;;;;23.10;29.50;;;;;;466644;254;1145;-40
2022/01/27 01:42:38;;;;;;;;;;;23.10;29.50;;;;;;466615;254;1119;-40
2022/01/27 01:44:40;;;;;;;;;;;23.10;29.50;;;;;;466730;255;1275;-40
2022/01/27 01:46:41;;;;;;;;;;;23.10;29.60;;;;;;466592;254;1278;-40
2022/01/27 01:48:42;;;;;;;;;;;23.00;29.60;;;;;;466689;254;1017;-40
2022/01/27 01:50:43;;;;;;;;;;;22.90;29.70;;;;;;466715;255;1235;-40
2022/01/27 01:52:45;;;;;;;;;;;22.60;30.00;;;;;;466843;254;2192;-40
2022/01/27 01:54:46;;;;;;;;;;;22.50;30.10;;;;;;467022;254;1074;-40
2022/01/27 01:56:47;;;;;;;;;;;22.40;30.30;;;;;;466473;254;1218;-40
2022/01/27 01:58:49;;;;;;;;;;;22.30;30.40;;;;;;466820;254;1185;-40
2022/01/27 02:00:50;;;;;;;;;;;22.20;30.50;;;;;;466725;254;1317;-40
2022/01/27 02:02:51;;;;;;;;;;;22.20;30.70;;;;;;466774;254;1109;-40
2022/01/27 02:04:53;;;;;;;;;;;22.10;30.70;;;;;;466674;254;1373;-40
2022/01/27 02:06:57;;;;;;;;;;;22.10;30.80;;;;;;466632;254;1497;-40
2022/01/27 02:09:17;;;;;;;;;;;22.10;30.90;;;;;;466388;255;2348;-40
2022/01/27 02:18:10;;;;;;;;;;;21.90;31.10;;;;;;466608;255;1239;-40
2022/01/27 02:20:11;;;;;;;;;;;21.80;31.10;;;;;;466661;254;1078;-40
2022/01/27 02:22:13;;;;;;;;;;;21.80;31.10;;;;;;466629;254;1294;-40
2022/01/27 02:24:14;;;;;;;;;;;21.80;31.20;;;;;;466664;254;1368;-40
2022/01/27 02:26:15;;;;;;;;;;;21.80;31.20;;;;;;466775;254;1341;-40
2022/01/27 02:28:16;;;;;;;;;;;21.80;31.20;;;;;;466971;254;1232;-39
2022/01/27 02:30:18;;;;;;;;;;;21.80;31.20;;;;;;466743;254;1121;-40
2022/01/27 02:32:22;;;;;;;;;;;21.80;31.20;;;;;;466834;254;2216;-40
2022/01/27 02:34:21;;;;;;;;;;;21.70;31.20;;;;;;467009;254;2034;-40
2022/01/27 02:36:22;;;;;;;;;;;21.70;31.20;;;;;;466795;254;1202;-40
2022/01/27 02:38:23;;;;;;;;;;;21.70;31.30;;;;;;466860;254;1061;-40
2022/01/27 02:40:25;;;;;;;;;;;21.60;31.30;;;;;;466589;254;1371;-40
2022/01/27 02:42:26;;;;;;;;;;;21.70;31.30;;;;;;466817;254;1599;-40
2022/01/27 02:44:27;;;;;;;;;;;21.60;31.30;;;;;;466878;254;1210;-40
2022/01/27 02:46:29;;;;;;;;;;;21.60;31.30;;;;;;466619;254;1388;-40
2022/01/27 02:48:30;;;;;;;;;;;21.60;31.30;;;;;;466700;254;1088;-40
2022/01/27 02:50:31;;;;;;;;;;;21.60;31.40;;;;;;466665;254;1167;-40
2022/01/27 02:52:33;;;;;;;;;;;21.60;31.50;;;;;;466640;254;2149;-40
2022/01/27 02:54:34;;;;;;;;;;;21.60;31.50;;;;;;466680;254;1201;-40
2022/01/27 02:56:38;;;;;;;;;;;21.50;31.50;;;;;;466544;254;1471;-40
2022/01/27 02:58:37;;;;;;;;;;;21.50;31.50;;;;;;466557;255;2036;-40
2022/01/27 03:00:38;;;;;;;;;;;21.50;31.50;;;;;;467053;254;1010;-40
2022/01/27 03:02:40;;;;;;;;;;;21.50;31.50;;;;;;466674;254;1307;-40
2022/01/27 03:04:41;;;;;;;;;;;21.50;31.50;;;;;;466685;254;1097;-40
2022/01/27 03:06:42;;;;;;;;;;;21.50;31.50;;;;;;466674;254;1298;-39
2022/01/27 03:08:44;;;;;;;;;;;21.50;31.50;;;;;;466643;254;1211;-40
2022/01/27 03:10:45;;;;;;;;;;;21.50;31.50;;;;;;466581;254;1367;-40
2022/01/27 03:12:46;;;;;;;;;;;21.50;31.50;;;;;;466603;254;2202;-40
2022/01/27 03:14:48;;;;;;;;;;;21.50;31.50;;;;;;466772;254;1180;-40
2022/01/27 03:16:49;;;;;;;;;;;21.40;31.50;;;;;;466689;254;1166;-40
2022/01/27 03:18:50;;;;;;;;;;;21.40;31.50;;;;;;466642;254;1070;-40
2022/01/27 03:20:52;;;;;;;;;;;21.40;31.60;;;;;;467007;254;1226;-40
2022/01/27 03:22:53;;;;;;;;;;;21.40;31.50;;;;;;466744;254;1164;-40
2022/01/27 03:24:54;;;;;;;;;;;21.40;31.60;;;;;;467068;254;1062;-40
2022/01/27 03:26:56;;;;;;;;;;;21.40;31.70;;;;;;466575;254;1253;-40
2022/01/27 03:28:58;;;;;;;;;;;21.40;31.70;;;;;;466829;254;1320;-40
2022/01/27 03:30:59;;;;;;;;;;;21.40;31.60;;;;;;466724;254;1538;-40
2022/01/27 03:33:00;;;;;;;;;;;21.40;31.70;;;;;;466603;254;2169;-40
2022/01/27 03:35:02;;;;;;;;;;;21.40;31.70;;;;;;466754;254;1062;-40
2022/01/27 03:37:03;;;;;;;;;;;21.40;31.70;;;;;;466477;254;1256;-40
2022/01/27 03:39:04;;;;;;;;;;;21.40;31.70;;;;;;466702;254;1143;-40
2022/01/27 03:41:07;;;;;;;;;;;21.40;31.70;;;;;;466682;254;1272;-40
2022/01/27 03:43:09;;;;;;;;;;;21.40;31.70;;;;;;466579;254;1913;-40
2022/01/27 03:45:08;;;;;;;;;;;21.30;31.60;;;;;;466669;254;1337;-40
2022/01/27 03:47:09;;;;;;;;;;;21.30;31.70;;;;;;466933;254;1311;-40
2022/01/27 03:49:11;;;;;;;;;;;21.30;31.70;;;;;;466845;254;1184;-40
2022/01/27 03:51:12;;;;;;;;;;;21.30;31.60;;;;;;466719;254;1312;-40
2022/01/27 03:53:14;;;;;;;;;;;21.30;31.70;;;;;;467074;254;2220;-40
2022/01/27 03:55:16;;;;;;;;;;;21.30;31.70;;;;;;466867;254;1199;-40
2022/01/27 03:57:17;;;;;;;;;;;21.30;31.70;;;;;;467031;254;1249;-40
2022/01/27 03:59:18;;;;;;;;;;;21.30;31.70;;;;;;466663;254;1234;-40
2022/01/27 04:01:20;;;;;;;;;;;21.30;31.70;;;;;;466625;254;1160;-40
2022/01/27 04:03:22;;;;;;;;;;;21.30;31.70;;;;;;466860;254;1277;-40
2022/01/27 04:05:22;;;;;;;;;;;21.30;31.70;;;;;;466556;255;2165;-40
2022/01/27 04:07:24;;;;;;;;;;;21.30;31.70;;;;;;466868;254;1210;-40
2022/01/27 04:09:26;;;;;;;;;;;21.30;31.70;;;;;;466648;254;1044;-40
2022/01/27 04:11:26;;;;;;;;;;;21.30;31.70;;;;;;466483;255;2088;-40
2022/01/27 04:13:27;;;;;;;;;;;21.20;31.80;;;;;;467020;254;2197;-40
2022/01/27 04:15:29;;;;;;;;;;;21.20;31.70;;;;;;466318;254;1203;-40
2022/01/27 04:17:30;;;;;;;;;;;21.20;31.70;;;;;;466593;254;1188;-40
2022/01/27 04:19:31;;;;;;;;;;;21.20;31.70;;;;;;466936;254;1092;-40
2022/01/27 04:21:33;;;;;;;;;;;21.20;31.70;;;;;;466801;254;1208;-40
2022/01/27 04:23:34;;;;;;;;;;;21.20;31.80;;;;;;466670;254;1254;-40
2022/01/27 04:25:37;;;;;;;;;;;21.20;31.70;;;;;;467055;254;1026;-39
2022/01/27 04:27:39;;;;;;;;;;;21.20;31.80;;;;;;466724;255;2429;-39
2022/01/27 04:29:39;;;;;;;;;;;21.20;31.80;;;;;;466666;255;2069;-40
2022/01/27 04:31:42;;;;;;;;;;;21.20;31.80;;;;;;466751;255;2301;-39
2022/01/27 04:33:41;;;;;;;;;;;21.20;31.80;;;;;;466888;255;2353;-39
2022/01/27 04:35:47;;;;;;;;;;;21.20;31.80;;;;;;466815;254;1488;-40
2022/01/27 04:37:55;;;;;;;;;;;21.10;31.80;;;;;;466763;255;2151;-40
2022/01/27 04:39:55;;;;;;;;;;;21.10;31.80;;;;;;465976;255;2147;-39
2022/01/27 04:41:51;;;;;;;;;;;21.20;31.90;;;;;;466030;255;2619;-39
2022/01/27 04:43:53;;;;;;;;;;;21.10;31.90;;;;;;466773;255;2289;-40
2022/01/27 04:45:57;;;;;;;;;;;21.10;31.90;;;;;;466546;255;2410;-40
2022/01/27 04:47:55;;;;;;;;;;;21.10;31.90;;;;;;466145;255;2163;-40
2022/01/27 04:49:51;;;;;;;;;;;21.10;31.90;;;;;;466379;255;1944;-40
2022/01/27 04:51:53;;;;;;;;;;;21.10;31.90;;;;;;466920;254;1586;-40
2022/01/27 04:54:00;;;;;;;;;;;21.10;31.90;;;;;;467058;254;2193;-40
2022/01/27 04:55:58;;;;;;;;;;;21.10;31.90;;;;;;466524;255;2143;-40
2022/01/27 04:58:08;;;;;;;;;;;21.10;31.90;;;;;;466418;255;2231;-40
2022/01/27 05:00:05;;;;;;;;;;;21.00;31.90;;;;;;466440;255;2211;-40
2022/01/27 05:02:13;;;;;;;;;;;21.10;31.90;;;;;;467014;254;1484;-40
2022/01/27 05:04:11;;;;;;;;;;;21.10;32.00;;;;;;466566;255;2137;-40
2022/01/27 05:06:10;;;;;;;;;;;21.00;32.00;;;;;;466431;255;2296;-40
2022/01/27 05:08:17;;;;;;;;;;;21.00;32.00;;;;;;466672;254;1180;-40
2022/01/27 05:10:17;;;;;;;;;;;21.00;32.00;;;;;;466597;255;2170;-40
2022/01/27 05:12:23;;;;;;;;;;;21.00;32.00;;;;;;466300;255;1556;-40
2022/01/27 05:14:18;;;;;;;;;;;21.00;32.10;;;;;;466104;255;2189;-40
2022/01/27 05:16:17;;;;;;;;;;;21.00;32.00;;;;;;466504;255;2388;-40
2022/01/27 05:18:19;;;;;;;;;;;21.00;32.00;;;;;;466575;254;1218;-40
2022/01/27 05:20:19;;;;;;;;;;;21.00;32.10;;;;;;466523;255;2045;-40
2022/01/27 05:22:21;;;;;;;;;;;21.00;32.00;;;;;;466486;254;1220;-40
2022/01/27 05:24:22;;;;;;;;;;;21.00;32.00;;;;;;466724;254;1062;-40
2022/01/27 05:26:23;;;;;;;;;;;21.00;32.00;;;;;;466788;254;1384;-40
2022/01/27 05:28:25;;;;;;;;;;;20.90;32.00;;;;;;466680;254;1202;-40
2022/01/27 05:30:26;;;;;;;;;;;21.00;32.00;;;;;;466551;254;1276;-40
2022/01/27 05:32:27;;;;;;;;;;;21.00;31.90;;;;;;466476;254;1254;-39
2022/01/27 05:34:29;;;;;;;;;;;21.00;31.90;;;;;;466676;254;2208;-40
2022/01/27 05:36:30;;;;;;;;;;;21.00;32.00;;;;;;466736;254;1251;-40
2022/01/27 05:38:31;;;;;;;;;;;21.00;32.00;;;;;;466881;254;1060;-40
2022/01/27 05:40:33;;;;;;;;;;;21.00;32.00;;;;;;466561;254;1098;-40
2022/01/27 05:42:34;;;;;;;;;;;21.00;32.00;;;;;;466504;254;1025;-40
2022/01/27 05:44:35;;;;;;;;;;;20.90;32.00;;;;;;466582;254;1194;-40
2022/01/27 05:46:36;;;;;;;;;;;20.90;32.00;;;;;;466452;254;1346;-40
2022/01/27 05:48:38;;;;;;;;;;;20.90;32.10;;;;;;466478;254;1337;-40
2022/01/27 05:50:39;;;;;;;;;;;20.90;32.00;;;;;;466536;254;1149;-40
2022/01/27 05:52:40;;;;;;;;;;;20.90;32.00;;;;;;466878;254;1255;-40
2022/01/27 05:54:43;;;;;;;;;;;20.90;32.00;;;;;;466740;254;2208;-40
2022/01/27 05:56:44;;;;;;;;;;;20.90;32.00;;;;;;466562;254;1280;-40
2022/01/27 05:58:45;;;;;;;;;;;20.90;32.00;;;;;;466567;254;1231;-40
2022/01/27 06:00:47;;;;;;;;;;;20.90;32.00;;;;;;466589;254;1370;-40
2022/01/27 06:02:48;;;;;;;;;;;20.90;32.00;;;;;;466360;254;1229;-39
2022/01/27 06:04:49;;;;;;;;;;;20.90;32.10;;;;;;466476;254;1079;-40
2022/01/27 06:06:53;;;;;;;;;;;20.90;32.10;;;;;;466479;254;1652;-39
2022/01/27 06:08:52;;;;;;;;;;;20.90;32.10;;;;;;466483;255;2146;-39
2022/01/27 06:10:53;;;;;;;;;;;20.90;32.10;;;;;;466280;254;1226;-39
2022/01/27 06:12:56;;;;;;;;;;;20.90;32.10;;;;;;466408;254;1592;-40
2022/01/27 06:14:56;;;;;;;;;;;20.90;32.10;;;;;;466357;255;2145;-39
2022/01/27 06:16:57;;;;;;;;;;;20.90;32.10;;;;;;466378;254;1467;-40
2022/01/27 06:18:59;;;;;;;;;;;20.90;32.10;;;;;;466438;254;1107;-39
2022/01/27 06:21:03;;;;;;;;;;;20.90;32.10;;;;;;466365;254;1213;-40
2022/01/27 06:23:01;;;;;;;;;;;20.90;32.00;;;;;;466217;255;2041;-40
2022/01/27 06:25:03;;;;;;;;;;;21.00;32.00;;;;;;466367;254;1132;-40
2022/01/27 06:27:04;;;;;;;;;;;20.90;32.00;;;;;;466339;254;1223;-40
2022/01/27 06:29:05;;;;;;;;;;;20.90;32.00;;;;;;466547;254;1147;-40
2022/01/27 06:31:07;;;;;;;;;;;20.90;32.00;;;;;;466265;254;1231;-40
2022/01/27 06:33:08;;;;;;;;;;;20.90;32.00;;;;;;466421;254;1257;-40
2022/01/27 06:35:09;;;;;;;;;;;20.90;32.00;;;;;;466194;254;2121;-40
2022/01/27 06:37:11;;;;;;;;;;;20.90;31.90;;;;;;466361;254;1281;-40
2022/01/27 06:39:12;;;;;;;;;;;20.90;31.90;;;;;;466411;254;1225;-40
2022/01/27 06:41:14;;;;;;;;;;;20.90;31.90;;;;;;466273;254;1507;-40
2022/01/27 06:43:15;;;;;;;;;;;21.00;32.00;;;;;;466380;254;1214;-39
2022/01/27 06:45:16;;;;;;;;;;;21.00;31.90;;;;;;466340;254;1061;-40
2022/01/27 06:47:18;;;;;;;;;;;21.00;31.90;;;;;;466294;254;1340;-40
2022/01/27 06:49:19;;;;;;;;;;;21.00;31.90;;;;;;466353;254;1203;-40
2022/01/27 06:51:20;;;;;;;;;;;20.90;31.90;;;;;;466159;254;1335;-40
2022/01/27 06:53:22;;;;;;;;;;;20.90;31.90;;;;;;466277;254;1148;-40
2022/01/27 06:55:23;;;;;;;;;;;20.90;31.90;;;;;;466328;254;2196;-40
2022/01/27 06:57:24;;;;;;;;;;;20.90;31.90;;;;;;466301;254;1126;-40
2022/01/27 06:59:26;;;;;;;;;;;20.90;31.90;;;;;;466515;254;1071;-40
2022/01/27 07:01:27;;;;;;;;;;;21.00;31.90;;;;;;466054;256;1412;-39
2022/01/27 07:03:28;;;;;;;;;;;20.90;31.90;;;;;;466423;254;1246;-40
2022/01/27 07:05:31;;;;;;;;;;;20.90;31.90;;;;;;466260;254;1107;-40
2022/01/27 07:07:31;;;;;;;;;;;20.90;31.90;;;;;;466102;255;2339;-40
2022/01/27 07:09:32;;;;;;;;;;;20.90;31.90;;;;;;466319;254;1162;-40
2022/01/27 07:11:34;;;;;;;;;;;20.90;31.90;;;;;;466104;254;1358;-40
2022/01/27 07:13:40;;;;;;;;;;;20.90;31.90;;;;;;466065;254;1234;-40
2022/01/27 07:15:36;;;;;;;;;;;20.90;31.90;;;;;;465891;255;2130;-40
2022/01/27 07:17:38;;;;;;;;;;;20.90;31.80;;;;;;466111;254;1642;-40
2022/01/27 07:19:39;;;;;;;;;;;21.00;31.90;;;;;;466209;254;1250;-39
2022/01/27 07:21:40;;;;;;;;;;;20.90;31.80;;;;;;466188;254;1252;-40
2022/01/27 07:23:42;;;;;;;;;;;21.00;31.80;;;;;;466204;254;1228;-40
2022/01/27 07:25:43;;;;;;;;;;;21.00;31.80;;;;;;466153;254;1206;-39
2022/01/27 07:27:44;;;;;;;;;;;21.00;31.80;;;;;;466333;254;1207;-40
2022/01/27 07:29:46;;;;;;;;;;;20.90;31.70;;;;;;465997;254;1277;-40
2022/01/27 07:31:47;;;;;;;;;;;21.00;31.70;;;;;;466153;254;1331;-40
2022/01/27 07:33:48;;;;;;;;;;;21.00;31.70;;;;;;465973;254;1340;-40
2022/01/27 07:35:50;;;;;;;;;;;21.00;31.70;;;;;;466032;254;2196;-40
2022/01/27 07:37:51;;;;;;;;;;;21.00;31.70;;;;;;465976;254;1380;-39
2022/01/27 07:39:52;;;;;;;;;;;21.00;31.70;;;;;;466090;254;1329;-40
2022/01/27 07:41:57;;;;;;;;;;;20.90;31.70;;;;;;466027;254;1511;-40
2022/01/27 07:43:55;;;;;;;;;;;20.90;31.70;;;;;;465779;255;2416;-39
2022/01/27 07:45:57;;;;;;;;;;;20.90;31.70;;;;;;466211;254;1344;-40
2022/01/27 07:47:58;;;;;;;;;;;20.90;31.70;;;;;;466119;254;1283;-40
2022/01/27 07:49:59;;;;;;;;;;;20.90;31.70;;;;;;466093;254;1069;-40
2022/01/27 07:52:01;;;;;;;;;;;20.90;31.70;;;;;;466126;254;1855;-40
2022/01/27 07:54:02;;;;;;;;;;;20.90;31.60;;;;;;466006;254;2812;-40
2022/01/27 07:56:04;;;;;;;;;;;20.90;31.60;;;;;;466168;254;2127;-40
2022/01/27 07:58:05;;;;;;;;;;;20.90;31.50;;;;;;466227;254;1140;-39
2022/01/27 08:00:06;;;;;;;;;;;20.90;31.60;;;;;;465951;254;1365;-40
2022/01/27 08:02:07;;;;;;;;;;;20.90;31.50;;;;;;465956;254;1185;-40
2022/01/27 08:04:08;;;;;;;;;;;20.90;31.50;;;;;;465810;254;1087;-40
2022/01/27 08:06:10;;;;;;;;;;;20.90;31.50;;;;;;465866;254;1618;-40
2022/01/27 08:08:11;;;;;;;;;;;20.90;31.60;;;;;;466654;254;1274;-40
2022/01/27 08:10:12;;;;;;;;;;;20.90;31.50;;;;;;466291;254;1127;-40
2022/01/27 08:12:14;;;;;;;;;;;20.90;31.50;;;;;;465910;254;1324;-40
2022/01/27 08:14:15;;;;;;;;;;;20.90;31.50;;;;;;465950;254;2209;-40
2022/01/27 08:16:16;;;;;;;;;;;20.90;31.40;;;;;;465650;254;1513;-40
2022/01/27 08:18:18;;;;;;;;;;;20.90;31.40;;;;;;466115;254;1097;-40
2022/01/27 08:20:19;;;;;;;;;;;20.90;31.40;;;;;;466039;254;1202;-40
2022/01/27 08:22:20;;;;;;;;;;;20.90;31.50;;;;;;465927;254;1109;-40
2022/01/27 08:24:22;;;;;;;;;;;20.90;31.40;;;;;;465769;254;1225;-40
2022/01/27 08:26:32;;;;;;;;;;;20.90;31.40;;;;;;465781;254;1373;-40
2022/01/27 08:28:33;;;;;;;;;;;20.90;31.40;;;;;;465706;255;2171;-40
2022/01/27 08:30:37;;;;;;;;;;;20.90;31.40;;;;;;465576;255;2191;-40
2022/01/27 08:32:44;;;;;;;;;;;20.90;31.40;;;;;;465612;255;2048;-39
2022/01/27 08:34:36;;;;;;;;;;;20.90;31.40;;;;;;465574;255;2193;-40
2022/01/27 08:36:36;;;;;;;;;;;20.90;31.40;;;;;;465878;254;2046;-40
2022/01/27 08:38:43;;;;;;;;;;;20.90;31.40;;;;;;466106;254;1139;-40
2022/01/27 08:40:38;;;;;;;;;;;20.90;31.40;;;;;;465554;255;2214;-40
2022/01/27 08:42:40;;;;;;;;;;;20.90;31.40;;;;;;465773;254;1294;-40
2022/01/27 08:44:41;;;;;;;;;;;20.90;31.30;;;;;;465768;255;1956;-40
2022/01/27 08:46:42;;;;;;;;;;;20.90;31.40;;;;;;465954;254;1284;-40
2022/01/27 08:48:45;;;;;;;;;;;20.80;31.30;;;;;;466092;254;1163;-40
2022/01/27 08:50:51;;;;;;;;;;;20.90;31.30;;;;;;465482;255;2202;-40
2022/01/27 08:52:47;;;;;;;;;;;20.90;31.30;;;;;;465647;255;2237;-40
2022/01/27 08:54:47;;;;;;;;;;;20.90;31.20;;;;;;466074;254;2240;-40
2022/01/27 08:56:49;;;;;;;;;;;20.90;31.20;;;;;;465828;254;1172;-40
2022/01/27 08:58:50;;;;;;;;;;;20.90;31.20;;;;;;465827;254;1155;-40
2022/01/27 09:00:51;;;;;;;;;;;20.90;31.20;;;;;;465591;254;1282;-40
2022/01/27 09:02:53;;;;;;;;;;;20.90;31.20;;;;;;465608;255;1339;-40
2022/01/27 09:04:54;;;;;;;;;;;20.90;31.10;;;;;;466316;254;1119;-40
2022/01/27 09:06:55;;;;;;;;;;;20.90;31.20;;;;;;465701;254;1422;-40
2022/01/27 09:08:57;;;;;;;;;;;20.80;31.20;;;;;;465941;254;1192;-39
2022/01/27 09:10:58;;;;;;;;;;;20.90;31.20;;;;;;465740;254;1213;-40
2022/01/27 09:12:59;;;;;;;;;;;20.90;31.20;;;;;;465681;254;1206;-40
2022/01/27 09:15:02;;;;;;;;;;;20.90;31.10;;;;;;465694;254;2197;-40
2022/01/27 09:17:02;;;;;;;;;;;20.90;31.10;;;;;;465488;255;2136;-40
2022/01/27 09:19:06;;;;;;;;;;;20.80;31.10;;;;;;465813;254;1248;-40
2022/01/27 09:21:12;;;;;;;;;;;20.90;31.10;;;;;;465747;254;1168;-40
2022/01/27 09:23:13;;;;;;;;;;;20.90;31.10;;;;;;465493;255;2114;-40
2022/01/27 09:25:16;;;;;;;;;;;20.90;31.00;;;;;;465491;255;2687;-39
2022/01/27 09:27:13;;;;;;;;;;;20.90;31.10;;;;;;464975;255;2086;-40
2022/01/27 09:29:15;;;;;;;;;;;20.90;31.10;;;;;;465329;254;1156;-40
2022/01/27 09:31:16;;;;;;;;;;;20.80;31.10;;;;;;465685;255;1346;-40
2022/01/27 09:33:17;;;;;;;;;;;20.80;31.00;;;;;;465622;254;1212;-40
2022/01/27 09:35:18;;;;;;;;;;;20.90;31.00;;;;;;465761;254;2205;-40
2022/01/27 09:37:20;;;;;;;;;;;20.90;31.00;;;;;;465658;254;1319;-40
2022/01/27 09:39:23;;;;;;;;;;;20.90;31.00;;;;;;465914;254;1122;-40
2022/01/27 09:41:22;;;;;;;;;;;20.90;30.90;;;;;;465729;255;1400;-40
2022/01/27 09:43:24;;;;;;;;;;;20.90;30.90;;;;;;466120;254;1027;-40
2022/01/27 09:45:26;;;;;;;;;;;20.80;30.90;;;;;;466440;254;1375;-40
2022/01/27 09:47:29;;;;;;;;;;;20.80;30.90;;;;;;466034;254;2342;-40
2022/01/27 09:49:35;;;;;;;;;;;20.90;30.80;;;;;;465743;255;2171;-40
2022/01/27 09:51:39;;;;;;;;;;;21.10;30.40;;;;;;465511;255;2046;-40
2022/01/27 09:53:39;;;;;;;;;;;21.20;30.00;;;;;;465627;254;2165;-40
2022/01/27 09:55:40;;;;;;;;;;;21.40;30.00;;;;;;465828;254;2140;-40
2022/01/27 09:57:42;;;;;;;;;;;21.40;29.70;;;;;;465960;254;1203;-40
2022/01/27 09:59:43;;;;;;;;;;;21.50;29.60;;;;;;465448;254;1339;-40
2022/01/27 10:01:44;;;;;;;;;;;21.60;29.40;;;;;;465401;254;1287;-40
2022/01/27 10:03:46;;;;;;;;;;;21.60;29.30;;;;;;466168;254;1206;-40
2022/01/27 10:05:47;;;;;;;;;;;21.70;29.30;;;;;;466292;254;1192;-40
2022/01/27 10:07:50;;;;;;;;;;;21.70;29.20;;;;;;465814;254;1185;-40
2022/01/27 10:09:49;;;;;;;;;;;21.70;29.10;;;;;;465552;255;2212;-40
2022/01/27 10:11:51;;;;;;;;;;;21.70;29.10;;;;;;465891;254;1177;-40
2022/01/27 10:13:52;;;;;;;;;;;21.80;29.00;;;;;;465803;254;1098;-40
2022/01/27 10:15:56;;;;;;;;;;;21.90;29.00;;;;;;465529;254;2225;-40
2022/01/27 10:17:55;;;;;;;;;;;21.90;28.80;;;;;;465874;254;1428;-40
2022/01/27 10:19:57;;;;;;;;;;;22.00;28.80;;;;;;465863;254;1181;-40
2022/01/27 10:21:58;;;;;;;;;;;22.00;28.80;;;;;;465820;254;1368;-40
2022/01/27 10:23:59;;;;;;;;;;;22.00;28.80;;;;;;466424;254;1360;-40
2022/01/27 10:26:08;;;;;;;;;;;22.00;28.80;;;;;;466093;254;1224;-40
2022/01/27 10:28:10;;;;;;;;;;;22.10;28.80;;;;;;465557;255;2093;-40
2022/01/27 10:32:23;;;;;;;;;;;22.10;28.80;;;;;;466382;255;1172;-40
2022/01/27 10:34:25;;;;;;;;;;;22.10;28.70;;;;;;466096;254;1447;-40
2022/01/27 10:36:26;;;;;;;;;;;22.10;28.70;;;;;;465854;254;2201;-40
2022/01/27 10:38:27;;;;;;;;;;;22.20;28.70;;;;;;465852;254;1229;-40
2022/01/27 10:40:29;;;;;;;;;;;22.20;28.70;;;;;;466050;254;1111;-40
2022/01/27 10:42:30;;;;;;;;;;;22.20;28.70;;;;;;465538;254;1176;-40
2022/01/27 10:44:31;;;;;;;;;;;22.20;28.70;;;;;;465664;254;1087;-40
2022/01/27 10:46:33;;;;;;;;;;;22.30;28.70;;;;;;465410;254;1297;-40
2022/01/27 10:48:36;;;;;;;;;;;22.30;28.70;;;;;;465693;254;1931;-40
2022/01/27 10:50:35;;;;;;;;;;;22.30;28.70;;;;;;465646;254;2244;-40
2022/01/27 10:52:40;;;;;;;;;;;22.30;28.60;;;;;;465786;254;1177;-40
2022/01/27 10:54:40;;;;;;;;;;;22.30;28.70;;;;;;465626;255;2283;-40
2022/01/27 10:56:39;;;;;;;;;;;22.30;28.60;;;;;;465668;255;2137;-40
2022/01/27 10:58:40;;;;;;;;;;;22.30;28.60;;;;;;466557;254;1130;-40
2022/01/27 11:00:42;;;;;;;;;;;22.30;28.60;;;;;;465984;254;1390;-40
2022/01/27 11:02:43;;;;;;;;;;;22.40;28.60;;;;;;465820;254;1250;-40
2022/01/27 11:04:45;;;;;;;;;;;22.40;28.60;;;;;;465737;254;1191;-40
2022/01/27 11:06:46;;;;;;;;;;;22.40;28.60;;;;;;465915;254;1236;-40
2022/01/27 11:08:48;;;;;;;;;;;22.40;28.60;;;;;;465790;254;1208;-40
2022/01/27 11:10:50;;;;;;;;;;;22.40;28.50;;;;;;465905;254;1314;-40
2022/01/27 11:12:50;;;;;;;;;;;22.40;28.60;;;;;;465626;254;2006;-40
2022/01/27 11:14:54;;;;;;;;;;;22.40;28.50;;;;;;465764;254;1129;-40
2022/01/27 11:16:56;;;;;;;;;;;22.40;28.50;;;;;;465525;255;2209;-40
2022/01/27 11:19:01;;;;;;;;;;;22.40;28.50;;;;;;465647;255;2259;-40
2022/01/27 11:21:00;;;;;;;;;;;22.50;28.50;;;;;;465515;255;2517;-40
2022/01/27 11:23:21;;;;;;;;;;;22.50;28.50;;;;;;466038;255;1479;-40
2022/01/27 11:25:49;;;;;;;;;;;22.50;28.50;;;;;;464339;255;2097;-40
2022/01/27 11:27:08;;;;;;;;;;;22.50;28.50;;;;;;464496;255;1591;-40
2022/01/27 11:29:09;;;;;;;;;;;22.50;28.50;;;;;;465702;254;1336;-40
2022/01/27 11:31:11;;;;;;;;;;;22.50;28.50;;;;;;465687;254;1377;-40
2022/01/27 11:33:13;;;;;;;;;;;22.50;28.50;;;;;;465994;254;1086;-40
2022/01/27 11:35:14;;;;;;;;;;;22.50;28.50;;;;;;466333;255;1826;-40
2022/01/27 11:37:18;;;;;;;;;;;22.50;28.40;;;;;;466487;254;2201;-40
2022/01/27 11:39:17;;;;;;;;;;;22.50;28.40;;;;;;466345;255;2115;-40
2022/01/27 11:41:18;;;;;;;;;;;22.50;28.40;;;;;;466508;254;1211;-40
2022/01/27 11:43:19;;;;;;;;;;;22.50;28.40;;;;;;466550;255;871;-40
2022/01/27 11:45:21;;;;;;;;;;;22.50;28.40;;;;;;466149;254;1246;-40
2022/01/27 11:47:22;;;;;;;;;;;22.50;28.40;;;;;;465786;254;1256;-40
2022/01/27 11:49:23;;;;;;;;;;;22.60;28.50;;;;;;465688;254;1232;-40
2022/01/27 11:51:25;;;;;;;;;;;22.60;28.50;;;;;;465619;254;1380;-40
2022/01/27 11:53:26;;;;;;;;;;;22.60;28.40;;;;;;465671;254;1147;-40
2022/01/27 11:55:29;;;;;;;;;;;22.60;28.40;;;;;;465769;254;2213;-40
2022/01/27 11:57:29;;;;;;;;;;;22.60;28.50;;;;;;465610;254;2145;-40
2022/01/27 11:59:30;;;;;;;;;;;22.60;28.40;;;;;;465804;254;1256;-40
2022/01/27 12:01:33;;;;;;;;;;;22.60;28.50;;;;;;465700;254;1363;-40
2022/01/27 12:03:33;;;;;;;;;;;22.60;28.40;;;;;;465969;254;1434;-40
2022/01/27 12:05:34;;;;;;;;;;;22.70;28.40;;;;;;466010;254;1323;-40
2022/01/27 12:07:36;;;;;;;;;;;22.70;28.40;;;;;;466360;254;1185;-40
2022/01/27 12:09:37;;;;;;;;;;;22.70;28.40;;;;;;465804;254;1068;-40
2022/01/27 12:11:38;;;;;;;;;;;22.70;28.40;;;;;;465972;254;1255;-40
2022/01/27 12:13:43;;;;;;;;;;;22.70;28.40;;;;;;465878;254;1159;-40
2022/01/27 12:15:41;;;;;;;;;;;22.70;28.40;;;;;;465479;255;2376;-40
2022/01/27 12:17:42;;;;;;;;;;;22.70;28.40;;;;;;465959;254;1328;-40